createdAt,value
2022-10-13T00:01:16.238Z,7.35
2022-10-13T00:03:47.327Z,6.68
2022-10-13T00:06:23.379Z,6.37
2022-10-13T00:08:50.358Z,6.45
2022-10-13T00:11:23.655Z,7.00
2022-10-13T00:13:52.636Z,6.13
2022-10-13T00:16:21.324Z,6.43
2022-10-13T00:18:49.375Z,7.22
2022-10-13T00:21:20.976Z,6.97
2022-10-13T00:23:50.033Z,7.18
2022-10-13T00:26:21.254Z,6.78
2022-10-13T00:28:52.526Z,8.05
2022-10-13T00:31:22.923Z,8.98
2022-10-13T00:33:50.440Z,6.65
2022-10-13T00:36:19.373Z,6.90
2022-10-13T00:38:46.846Z,5.85
2022-10-13T00:41:15.254Z,7.68
2022-10-13T00:44:01.370Z,6.07
2022-10-13T00:46:31.116Z,6.65
2022-10-13T00:49:03.317Z,8.05
2022-10-13T00:51:33.548Z,6.57
2022-10-13T00:54:03.411Z,7.25
2022-10-13T00:56:31.587Z,7.50
2022-10-13T00:59:00.572Z,6.90
2022-10-13T01:01:27.900Z,7.13
2022-10-13T01:03:54.939Z,6.47
2022-10-13T01:06:23.860Z,6.75
2022-10-13T01:08:51.362Z,7.72
2022-10-13T01:11:37.467Z,6.90
2022-10-13T01:14:27.985Z,8.07
2022-10-13T01:17:13.465Z,7.07
2022-10-13T01:19:58.910Z,6.75
2022-10-13T01:22:57.220Z,6.55
2022-10-13T01:26:08.210Z,6.13
2022-10-13T01:29:15.062Z,6.78
2022-10-13T01:32:00.670Z,8.57
2022-10-13T01:34:36.061Z,6.78
2022-10-13T01:37:27.280Z,6.68
2022-10-13T01:40:03.103Z,5.95
2022-10-13T01:43:08.293Z,6.43
2022-10-13T01:46:13.725Z,7.35
2022-10-13T01:48:43.403Z,7.43
2022-10-13T01:51:14.255Z,7.13
2022-10-13T01:53:42.832Z,6.97
2022-10-13T01:56:10.171Z,7.28
2022-10-13T01:58:41.997Z,6.78
2022-10-13T02:01:20.914Z,7.32
2022-10-13T02:04:06.099Z,8.05
2022-10-13T02:06:38.783Z,6.47
2022-10-13T02:09:18.462Z,7.28
2022-10-13T02:11:52.287Z,7.10
2022-10-13T02:14:27.720Z,7.57
2022-10-13T02:16:57.486Z,7.57
2022-10-13T02:19:25.143Z,7.53
2022-10-13T02:21:53.316Z,7.50
2022-10-13T02:24:20.367Z,8.98
2022-10-13T02:26:47.912Z,7.20
2022-10-13T02:29:20.792Z,7.35
2022-10-13T02:31:47.996Z,8.50
2022-10-13T02:34:15.692Z,8.00
2022-10-13T02:36:46.625Z,7.97
2022-10-13T02:39:13.564Z,7.70
2022-10-13T02:41:40.659Z,6.83
2022-10-13T02:46:41.160Z,8.77
2022-10-13T02:49:07.963Z,7.20
2022-10-13T02:51:39.728Z,7.33
2022-10-13T02:54:07.262Z,7.10
2022-10-13T02:56:34.196Z,7.53
2022-10-13T02:59:01.145Z,9.27
2022-10-13T03:01:28.213Z,8.52
2022-10-13T03:03:55.122Z,8.98
2022-10-13T03:06:22.246Z,8.60
2022-10-13T03:08:49.346Z,8.32
2022-10-13T03:11:16.082Z,7.25
2022-10-13T03:13:42.803Z,8.23
2022-10-13T03:16:10.134Z,6.80
2022-10-13T03:18:37.159Z,8.20
2022-10-13T03:21:06.573Z,7.43
2022-10-13T03:23:33.906Z,7.82
2022-10-13T03:26:01.256Z,7.07
2022-10-13T03:28:28.692Z,8.85
2022-10-13T03:31:06.591Z,9.02
2022-10-13T03:33:33.481Z,8.40
2022-10-13T03:36:07.451Z,7.10
2022-10-13T03:38:35.715Z,8.57
2022-10-13T03:41:17.270Z,5.85
2022-10-13T03:43:48.695Z,8.38
2022-10-13T03:46:17.529Z,7.10
2022-10-13T03:48:46.772Z,6.93
2022-10-13T03:51:20.036Z,6.30
2022-10-13T03:53:50.463Z,7.85
2022-10-13T03:56:25.203Z,8.45
2022-10-13T03:58:56.015Z,7.32
2022-10-13T04:01:25.355Z,8.70
2022-10-13T04:03:54.290Z,8.57
2022-10-13T04:06:22.215Z,8.35
2022-10-13T04:08:49.665Z,8.63
2022-10-13T04:11:17.423Z,7.53
2022-10-13T04:13:44.950Z,8.05
2022-10-13T04:16:24.024Z,8.45
2022-10-13T04:19:03.202Z,7.65
2022-10-13T04:21:34.003Z,9.07
2022-10-13T04:24:02.696Z,7.93
2022-10-13T04:26:33.849Z,6.57
2022-10-13T04:29:08.812Z,9.20
2022-10-13T04:31:36.034Z,8.07
2022-10-13T04:34:03.595Z,8.02
2022-10-13T04:36:31.720Z,7.80
2022-10-13T04:38:58.573Z,8.43
2022-10-13T04:41:25.996Z,8.93
2022-10-13T04:43:54.331Z,8.15
2022-10-13T04:46:26.893Z,8.25
2022-10-13T04:48:56.847Z,8.30
2022-10-13T04:51:29.443Z,7.28
2022-10-13T04:54:02.781Z,8.18
2022-10-13T04:56:29.934Z,9.25
2022-10-13T04:59:05.772Z,7.85
2022-10-13T05:01:33.814Z,7.15
2022-10-13T05:04:03.032Z,9.32
2022-10-13T05:07:05.173Z,8.18
2022-10-13T05:09:29.863Z,7.60
2022-10-13T05:11:57.370Z,9.65
2022-10-13T05:14:24.314Z,10.32
2022-10-13T05:16:51.315Z,8.63
2022-10-13T05:19:18.299Z,8.98
2022-10-13T05:21:45.346Z,9.43
2022-10-13T05:24:13.740Z,10.30
2022-10-13T05:26:41.725Z,9.60
2022-10-13T05:29:09.199Z,9.13
2022-10-13T05:31:36.410Z,9.25
2022-10-13T05:34:03.270Z,9.15
2022-10-13T05:36:32.864Z,8.50
2022-10-13T05:39:04.844Z,8.95
2022-10-13T05:41:33.101Z,8.40
2022-10-13T05:44:06.293Z,9.32
2022-10-13T05:46:33.552Z,8.95
2022-10-13T05:49:00.447Z,9.93
2022-10-13T05:51:31.055Z,9.75
2022-10-13T05:54:13.533Z,10.90
2022-10-13T05:56:55.464Z,10.65
2022-10-13T05:59:27.057Z,8.93
2022-10-13T06:01:55.522Z,9.00
2022-10-13T06:04:53.784Z,8.35
2022-10-13T06:07:21.046Z,9.25
2022-10-13T06:09:49.006Z,10.45
2022-10-13T06:12:16.589Z,8.43
2022-10-13T06:14:46.601Z,9.05
2022-10-13T06:17:14.775Z,8.35
2022-10-13T06:19:45.457Z,9.13
2022-10-13T06:22:12.668Z,8.98
2022-10-13T06:24:39.554Z,9.02
2022-10-13T06:27:10.157Z,8.98
2022-10-13T06:29:38.323Z,12.05
2022-10-13T06:32:08.107Z,8.93
2022-10-13T06:34:35.326Z,9.38
2022-10-13T06:37:02.367Z,10.23
2022-10-13T06:39:29.262Z,11.48
2022-10-13T06:41:56.050Z,9.17
2022-10-13T06:44:31.898Z,10.38
2022-10-13T06:47:03.177Z,10.73
2022-10-13T06:49:29.950Z,9.27
2022-10-13T06:51:56.923Z,10.98
2022-10-13T06:54:23.983Z,10.40
2022-10-13T06:56:51.361Z,10.35
2022-10-13T06:59:18.217Z,11.40
2022-10-13T07:01:47.103Z,11.20
2022-10-13T07:04:16.308Z,12.48
2022-10-13T07:06:43.292Z,11.32
2022-10-13T07:09:10.298Z,10.75
2022-10-13T07:11:37.450Z,13.10
2022-10-13T07:14:04.364Z,11.07
2022-10-13T07:16:31.583Z,13.60
2022-10-13T07:18:58.617Z,11.70
2022-10-13T07:21:25.508Z,12.60
2022-10-13T07:23:52.367Z,12.18
2022-10-13T07:26:19.552Z,12.13
2022-10-13T07:28:46.590Z,11.75
2022-10-13T07:31:16.682Z,12.05
2022-10-13T07:33:45.150Z,13.13
2022-10-13T07:36:12.817Z,11.20
2022-10-13T07:41:08.810Z,10.98
2022-10-13T07:43:36.174Z,11.52
2022-10-13T07:46:05.849Z,12.20
2022-10-13T07:48:33.891Z,14.32
2022-10-13T07:51:11.250Z,11.95
2022-10-13T07:53:40.068Z,10.80
2022-10-13T07:56:10.917Z,12.27
2022-10-13T07:58:40.018Z,10.43
2022-10-13T08:01:07.409Z,9.80
2022-10-13T08:03:38.466Z,8.95
2022-10-13T08:11:10.615Z,5.05
2022-10-13T08:13:39.372Z,5.72
2022-10-13T08:16:19.141Z,6.10
2022-10-13T08:21:45.715Z,4.93
2022-10-13T08:24:05.949Z,4.38
2022-10-13T08:26:33.517Z,3.72
2022-10-13T08:29:20.890Z,4.53
2022-10-13T08:34:25.718Z,3.50
2022-10-13T08:36:56.075Z,2.70
2022-10-13T08:39:24.690Z,3.70
2022-10-13T08:41:52.320Z,4.07
2022-10-13T08:47:27.885Z,3.10
2022-10-13T08:50:03.940Z,3.23
2022-10-13T08:52:46.881Z,3.22
2022-10-13T08:55:30.944Z,3.83
2022-10-13T08:57:59.854Z,3.63
2022-10-13T09:00:28.795Z,2.70
2022-10-13T09:03:07.505Z,3.28
2022-10-13T09:05:46.921Z,3.67
2022-10-13T09:08:20.531Z,3.22
2022-10-13T09:10:51.723Z,3.28
2022-10-13T09:13:20.109Z,3.67
2022-10-13T09:15:50.378Z,3.05
2022-10-13T09:18:17.772Z,4.05
2022-10-13T09:20:44.633Z,3.97
2022-10-13T09:23:19.458Z,3.40
2022-10-13T09:25:52.341Z,3.75
2022-10-13T09:28:33.030Z,3.47
2022-10-13T09:31:13.911Z,3.40
2022-10-13T09:33:41.014Z,3.30
2022-10-13T09:36:13.759Z,3.75
2022-10-13T09:38:43.817Z,3.25
2022-10-13T09:41:10.563Z,3.00
2022-10-13T09:43:46.732Z,4.40
2022-10-13T09:46:32.949Z,3.00
2022-10-13T09:49:24.243Z,3.97
2022-10-13T09:51:51.935Z,2.92
2022-10-13T09:54:42.973Z,2.72
2022-10-13T09:57:39.044Z,2.75
2022-10-13T10:00:14.725Z,3.13
2022-10-13T10:02:48.002Z,2.53
2022-10-13T10:05:35.011Z,3.28
2022-10-13T10:11:03.782Z,3.75
2022-10-13T10:13:30.779Z,4.15
2022-10-13T10:16:11.671Z,2.80
2022-10-13T10:19:04.080Z,2.88
2022-10-13T10:21:52.327Z,3.15
2022-10-13T10:24:22.144Z,3.20
2022-10-13T10:27:02.537Z,3.88
2022-10-13T10:29:56.241Z,3.08
2022-10-13T10:32:44.131Z,3.15
2022-10-13T10:35:52.498Z,3.00
2022-10-13T10:38:43.229Z,2.42
2022-10-13T10:41:28.617Z,2.97
2022-10-13T10:44:09.562Z,3.42
2022-10-13T10:46:42.446Z,2.83
2022-10-13T10:49:22.013Z,2.30
2022-10-13T10:51:50.056Z,3.05
2022-10-13T10:54:48.414Z,2.97
2022-10-13T10:57:24.709Z,3.08
2022-10-13T11:00:21.791Z,2.27
2022-10-13T11:03:10.058Z,3.50
2022-10-13T11:06:04.192Z,3.00
2022-10-13T11:08:43.211Z,2.63
2022-10-13T11:11:25.093Z,2.42
2022-10-13T11:13:58.045Z,2.25
2022-10-13T11:16:30.977Z,2.40
2022-10-13T11:19:19.957Z,2.53
2022-10-13T11:21:52.915Z,2.67
2022-10-13T11:24:43.957Z,2.58
2022-10-13T11:27:19.371Z,2.35
2022-10-13T11:30:09.141Z,2.33
2022-10-13T11:32:36.300Z,2.80
2022-10-13T11:35:06.411Z,2.42
2022-10-13T11:38:08.786Z,2.08
2022-10-13T11:41:17.356Z,2.38
2022-10-13T11:46:58.758Z,2.08
2022-10-13T11:49:37.953Z,2.10
2022-10-13T11:52:30.340Z,2.17
2022-10-13T11:55:11.695Z,2.30
2022-10-13T11:57:38.795Z,2.05
2022-10-13T12:00:13.499Z,2.15
2022-10-13T12:02:52.542Z,2.20
2022-10-13T12:05:30.322Z,2.47
2022-10-13T12:08:03.275Z,2.50
2022-10-13T12:10:35.462Z,2.20
2022-10-13T12:13:05.224Z,3.30
2022-10-13T12:15:35.542Z,2.40
2022-10-13T12:18:03.443Z,2.20
2022-10-13T12:20:33.066Z,2.40
2022-10-13T12:23:03.073Z,2.30
2022-10-13T12:25:31.079Z,1.63
2022-10-13T12:28:00.509Z,2.22
2022-10-13T12:30:31.998Z,2.55
2022-10-13T12:33:03.002Z,2.38
2022-10-13T12:35:34.464Z,2.40
2022-10-13T12:38:06.704Z,1.73
2022-10-13T12:40:35.898Z,1.52
2022-10-13T12:43:05.186Z,2.60
2022-10-13T12:45:35.203Z,2.40
2022-10-13T12:48:02.039Z,2.03
2022-10-13T12:50:36.000Z,2.47
2022-10-13T12:53:09.208Z,2.60
2022-10-13T12:55:46.114Z,2.65
2022-10-13T12:58:25.967Z,3.10
2022-10-13T13:01:27.262Z,2.17
2022-10-13T13:03:57.116Z,2.35
2022-10-13T13:06:31.851Z,2.83
2022-10-13T13:09:16.811Z,2.00
2022-10-13T13:11:46.879Z,2.10
2022-10-13T13:20:28.329Z,1.92
2022-10-13T13:22:55.825Z,2.67
2022-10-13T13:27:49.919Z,3.10
2022-10-13T13:30:19.695Z,2.80
2022-10-13T13:32:47.560Z,2.72
2022-10-13T13:35:14.662Z,2.38
2022-10-13T13:37:44.842Z,1.92
2022-10-13T13:40:16.934Z,2.92
2022-10-13T13:42:43.938Z,2.40
2022-10-13T13:45:15.780Z,2.75
2022-10-13T13:47:42.948Z,2.85
2022-10-13T13:50:21.230Z,3.03
2022-10-13T13:52:56.761Z,2.33
2022-10-13T13:55:23.905Z,2.85
2022-10-13T13:57:50.904Z,2.45
2022-10-13T14:00:18.820Z,7.32
2022-10-13T14:02:54.960Z,2.75
2022-10-13T14:07:48.962Z,4.28
2022-10-13T14:10:16.006Z,3.17
2022-10-13T14:12:43.096Z,3.25
2022-10-13T14:15:10.457Z,2.40
2022-10-13T14:17:37.670Z,1.23
2022-10-13T14:20:05.095Z,2.42
2022-10-13T14:22:40.326Z,2.15
2022-10-13T14:25:10.404Z,2.40
2022-10-13T14:27:37.724Z,2.75
2022-10-13T14:30:07.639Z,2.15
2022-10-13T14:32:36.856Z,2.78
2022-10-13T14:35:04.881Z,3.33
2022-10-13T14:37:33.626Z,3.47
2022-10-13T14:40:04.557Z,3.75
2022-10-13T14:42:32.570Z,2.92
2022-10-13T14:45:02.655Z,3.72
2022-10-13T14:47:29.657Z,4.40
2022-10-13T14:49:56.603Z,3.60
2022-10-13T14:52:23.662Z,3.60
2022-10-13T14:54:50.732Z,3.50
2022-10-13T14:57:18.248Z,3.80
2022-10-13T14:59:46.877Z,4.65
2022-10-13T15:02:14.072Z,4.53
2022-10-13T15:04:52.023Z,4.47
2022-10-13T15:12:28.132Z,3.47
2022-10-13T15:14:55.032Z,3.95
2022-10-13T15:17:22.307Z,4.80
2022-10-13T15:19:52.147Z,4.93
2022-10-13T15:22:19.467Z,4.15
2022-10-13T15:24:46.666Z,5.45
2022-10-13T15:27:13.642Z,4.85
2022-10-13T15:29:40.366Z,5.32
2022-10-13T15:32:18.599Z,4.93
2022-10-13T15:34:55.689Z,5.63
2022-10-13T15:37:22.553Z,5.35
2022-10-13T15:39:53.188Z,5.43
2022-10-13T15:42:23.674Z,5.55
2022-10-13T15:47:36.773Z,5.60
2022-10-13T15:50:04.464Z,5.03
2022-10-13T15:55:05.149Z,7.03
2022-10-13T15:57:32.226Z,6.00
2022-10-13T15:59:59.351Z,6.78
2022-10-13T16:02:26.444Z,7.90
2022-10-13T16:04:53.417Z,6.38
2022-10-13T16:07:22.919Z,6.35
2022-10-13T16:09:49.848Z,6.07
2022-10-13T16:12:16.854Z,7.32
2022-10-13T16:14:47.304Z,7.57
2022-10-13T16:17:14.206Z,6.70
2022-10-13T16:19:41.173Z,7.28
2022-10-13T16:22:08.461Z,6.97
2022-10-13T16:24:35.655Z,8.15
2022-10-13T16:27:03.738Z,6.72
2022-10-13T16:29:33.973Z,5.78
2022-10-13T16:32:00.866Z,5.85
2022-10-13T16:34:28.037Z,5.43
2022-10-13T16:36:54.876Z,6.05
2022-10-13T16:39:23.766Z,6.43
2022-10-13T16:41:53.619Z,5.60
2022-10-13T16:44:25.326Z,6.40
2022-10-13T16:49:20.955Z,5.05
2022-10-13T16:51:48.007Z,5.50
2022-10-13T16:54:14.998Z,6.38
2022-10-13T16:56:41.790Z,6.80
2022-10-13T16:59:09.836Z,7.53
2022-10-13T17:01:41.106Z,7.25
2022-10-13T17:04:08.019Z,7.30
2022-10-13T17:06:38.583Z,6.38
2022-10-13T17:09:05.472Z,6.30
2022-10-13T17:11:34.503Z,8.05
2022-10-13T17:14:07.519Z,6.47
2022-10-13T17:16:35.583Z,6.13
2022-10-13T17:19:02.745Z,6.53
2022-10-13T17:21:38.342Z,6.60
2022-10-13T17:24:08.500Z,7.03
2022-10-13T17:26:35.426Z,7.05
2022-10-13T17:29:02.373Z,6.90
2022-10-13T17:31:29.327Z,7.18
2022-10-13T17:33:56.093Z,8.23
2022-10-13T17:36:28.286Z,7.07
2022-10-13T17:38:56.532Z,6.85
2022-10-13T17:41:24.061Z,7.38
2022-10-13T17:46:39.772Z,6.47
2022-10-13T17:49:09.714Z,6.22
2022-10-13T17:51:36.507Z,8.32
2022-10-13T17:54:03.920Z,7.50
2022-10-13T17:56:31.527Z,7.75
2022-10-13T17:59:00.516Z,7.57
2022-10-13T18:01:31.782Z,7.13
2022-10-13T18:04:04.820Z,7.97
2022-10-13T18:06:38.479Z,7.20
2022-10-13T18:09:15.399Z,7.68
2022-10-13T18:11:48.828Z,7.27
2022-10-13T18:14:17.970Z,7.53
2022-10-13T18:16:45.033Z,7.68
2022-10-13T18:21:40.783Z,6.53
2022-10-13T18:24:09.411Z,7.45
2022-10-13T18:26:36.384Z,7.45
2022-10-13T18:29:05.802Z,8.10
2022-10-13T18:31:34.577Z,8.48
2022-10-13T18:34:03.845Z,7.65
2022-10-13T18:36:36.379Z,8.13
2022-10-13T18:39:14.934Z,7.65
2022-10-13T18:41:46.022Z,7.17
2022-10-13T18:44:13.238Z,7.35
2022-10-13T18:46:40.470Z,6.60
2022-10-13T18:49:10.924Z,7.43
2022-10-13T18:51:39.329Z,8.07
2022-10-13T18:54:07.235Z,7.82
2022-10-13T18:56:36.593Z,7.82
2022-10-13T18:59:05.198Z,7.45
2022-10-13T19:01:33.659Z,8.00
2022-10-13T19:04:01.258Z,7.90
2022-10-13T19:08:57.898Z,6.82
2022-10-13T19:11:25.279Z,7.85
2022-10-13T19:13:52.918Z,7.63
2022-10-13T19:16:22.041Z,7.57
2022-10-13T19:18:50.211Z,6.97
2022-10-13T19:21:18.547Z,7.78
2022-10-13T19:23:45.928Z,7.53
2022-10-13T19:26:32.422Z,7.75
2022-10-13T19:29:10.320Z,8.07
2022-10-13T19:31:39.554Z,7.85
2022-10-13T19:34:12.414Z,7.20
2022-10-13T19:36:42.632Z,8.02
2022-10-13T19:39:15.491Z,8.75
2022-10-13T19:41:43.479Z,8.55
2022-10-13T19:44:10.843Z,9.10
2022-10-13T19:46:42.421Z,7.70
2022-10-13T19:49:13.410Z,8.27
2022-10-13T19:51:45.315Z,8.27
2022-10-13T19:54:13.242Z,9.20
2022-10-13T19:56:46.438Z,9.10
2022-10-13T19:59:14.447Z,9.80
2022-10-13T20:01:42.675Z,8.07
2022-10-13T20:04:17.826Z,8.88
2022-10-13T20:06:44.895Z,8.18
2022-10-13T20:09:12.035Z,8.73
2022-10-13T20:11:39.039Z,7.43
2022-10-13T20:14:06.032Z,9.07
2022-10-13T20:16:33.381Z,7.93
2022-10-13T20:19:01.326Z,9.00
2022-10-13T20:21:29.482Z,8.15
2022-10-13T20:23:56.813Z,8.45
2022-10-13T20:26:24.548Z,8.93
2022-10-13T20:28:53.516Z,8.15
2022-10-13T20:31:22.168Z,8.23
2022-10-13T20:33:56.112Z,8.23
2022-10-13T20:36:27.218Z,7.75
2022-10-13T20:38:54.943Z,8.18
2022-10-13T20:41:30.624Z,8.30
2022-10-13T20:44:00.921Z,9.35
2022-10-13T20:46:30.074Z,8.10
2022-10-13T20:49:13.463Z,9.20
2022-10-13T20:51:42.557Z,8.07
2022-10-13T20:54:13.906Z,9.02
2022-10-13T20:56:41.243Z,9.35
2022-10-13T20:59:10.842Z,8.02
2022-10-13T21:01:38.929Z,7.75
2022-10-13T21:04:06.017Z,8.45
2022-10-13T21:06:33.654Z,8.27
2022-10-13T21:09:01.847Z,7.82
2022-10-13T21:11:32.327Z,8.65
2022-10-13T21:13:59.227Z,9.68
2022-10-13T21:16:28.542Z,8.73
2022-10-13T21:18:57.005Z,8.13
2022-10-13T21:21:26.959Z,8.95
2022-10-13T21:23:55.847Z,8.07
2022-10-13T21:26:24.135Z,8.82
2022-10-13T21:28:51.919Z,7.93
2022-10-13T21:31:23.321Z,8.32
2022-10-13T21:33:50.511Z,8.43
2022-10-13T21:36:20.519Z,7.70
2022-10-13T21:38:51.032Z,8.70
2022-10-13T21:41:18.259Z,8.18
2022-10-13T21:43:45.198Z,8.18
2022-10-13T21:46:19.911Z,9.45
2022-10-13T21:48:54.212Z,8.38
2022-10-13T21:51:22.488Z,7.38
2022-10-13T21:53:54.340Z,9.50
2022-10-13T21:56:25.524Z,8.77
2022-10-13T21:58:53.860Z,7.28
2022-10-13T22:01:21.830Z,8.43
2022-10-13T22:03:49.086Z,8.25
2022-10-13T22:06:19.799Z,8.38
2022-10-13T22:08:50.170Z,8.85
2022-10-13T22:11:24.402Z,9.27
2022-10-13T22:13:51.671Z,8.70
2022-10-13T22:16:25.051Z,8.68
2022-10-13T22:18:54.103Z,8.60
2022-10-13T22:21:34.919Z,8.38
2022-10-13T22:24:07.286Z,8.10
2022-10-13T22:26:37.091Z,8.25
2022-10-13T22:29:06.256Z,9.93
2022-10-13T22:31:34.096Z,8.65
2022-10-13T22:34:08.898Z,9.65
2022-10-13T22:36:38.067Z,10.38
2022-10-13T22:39:07.302Z,9.55
2022-10-13T22:41:34.979Z,9.10
2022-10-13T22:44:02.790Z,7.88
2022-10-13T22:46:32.586Z,8.05
2022-10-13T22:49:00.272Z,9.95
2022-10-13T22:53:56.191Z,9.15
2022-10-13T22:56:28.876Z,8.57
2022-10-13T22:59:03.456Z,9.43
2022-10-13T23:01:30.587Z,8.27
2022-10-13T23:03:58.579Z,8.50
2022-10-13T23:06:28.490Z,7.97
2022-10-13T23:08:56.364Z,7.88
2022-10-13T23:11:23.630Z,8.43
2022-10-13T23:13:50.915Z,9.80
2022-10-13T23:16:21.760Z,8.65
2022-10-13T23:18:48.874Z,8.45
2022-10-13T23:21:28.169Z,7.97
2022-10-13T23:24:03.889Z,7.97
2022-10-13T23:26:32.198Z,7.38
2022-10-13T23:28:59.667Z,7.95
2022-10-13T23:31:29.562Z,7.95
2022-10-13T23:33:56.670Z,6.90
2022-10-13T23:36:26.843Z,8.15
2022-10-13T23:39:06.754Z,8.40
2022-10-13T23:41:33.990Z,8.07
2022-10-13T23:44:00.990Z,8.45
2022-10-13T23:46:28.110Z,7.03
2022-10-13T23:48:54.986Z,7.88
2022-10-13T23:51:24.053Z,7.43
2022-10-13T23:53:55.025Z,8.70
2022-10-13T23:56:24.182Z,7.63
2022-10-13T23:58:51.449Z,6.95
